sensor_id;sensor_type;location;lat;lon;timestamp;P1;durP1;ratioP1;P2;durP2;ratioP2
12383;SDS011;6256;63.808;20.336;2024-03-06T00:02:05;0.70;;;0.70;;
12383;SDS011;6256;63.808;20.336;2024-03-06T00:04:54;1.30;;;1.00;;
12383;SDS011;6256;63.808;20.336;2024-03-06T00:07:19;2.17;;;1.23;;
12383;SDS011;6256;63.808;20.336;2024-03-06T00:09:45;1.10;;;1.00;;
12383;SDS011;6256;63.808;20.336;2024-03-06T00:12:11;1.47;;;1.07;;
12383;SDS011;6256;63.808;20.336;2024-03-06T00:14:37;1.17;;;1.00;;
12383;SDS011;6256;63.808;20.336;2024-03-06T00:17:03;1.40;;;1.30;;
12383;SDS011;6256;63.808;20.336;2024-03-06T00:19:31;1.10;;;1.00;;
12383;SDS011;6256;63.808;20.336;2024-03-06T00:21:57;1.20;;;0.90;;
12383;SDS011;6256;63.808;20.336;2024-03-06T00:24:24;1.20;;;1.10;;
12383;SDS011;6256;63.808;20.336;2024-03-06T00:26:50;0.83;;;0.70;;
12383;SDS011;6256;63.808;20.336;2024-03-06T00:29:16;1.20;;;1.10;;
12383;SDS011;6256;63.808;20.336;2024-03-06T00:31:42;1.20;;;1.10;;
12383;SDS011;6256;63.808;20.336;2024-03-06T00:34:09;1.73;;;1.37;;
12383;SDS011;6256;63.808;20.336;2024-03-06T00:36:42;1.43;;;1.23;;
12383;SDS011;6256;63.808;20.336;2024-03-06T00:39:11;1.33;;;1.17;;
12383;SDS011;6256;63.808;20.336;2024-03-06T00:41:39;0.93;;;0.83;;
12383;SDS011;6256;63.808;20.336;2024-03-06T00:44:05;1.03;;;0.87;;
12383;SDS011;6256;63.808;20.336;2024-03-06T00:46:31;1.20;;;1.10;;
12383;SDS011;6256;63.808;20.336;2024-03-06T00:48:57;1.30;;;1.20;;
12383;SDS011;6256;63.808;20.336;2024-03-06T00:51:23;2.77;;;1.10;;
12383;SDS011;6256;63.808;20.336;2024-03-06T00:53:49;1.13;;;1.03;;
12383;SDS011;6256;63.808;20.336;2024-03-06T00:56:14;1.40;;;1.17;;
12383;SDS011;6256;63.808;20.336;2024-03-06T00:58:40;1.07;;;0.90;;
12383;SDS011;6256;63.808;20.336;2024-03-06T01:01:05;1.17;;;1.10;;
12383;SDS011;6256;63.808;20.336;2024-03-06T01:03:31;1.47;;;1.27;;
12383;SDS011;6256;63.808;20.336;2024-03-06T01:05:57;3.00;;;1.20;;
12383;SDS011;6256;63.808;20.336;2024-03-06T01:08:22;1.27;;;1.10;;
12383;SDS011;6256;63.808;20.336;2024-03-06T01:10:50;1.33;;;1.10;;
12383;SDS011;6256;63.808;20.336;2024-03-06T01:13:16;1.10;;;1.00;;
12383;SDS011;6256;63.808;20.336;2024-03-06T01:15:43;2.83;;;1.73;;
12383;SDS011;6256;63.808;20.336;2024-03-06T01:18:09;1.60;;;1.03;;
12383;SDS011;6256;63.808;20.336;2024-03-06T01:20:34;1.77;;;1.20;;
12383;SDS011;6256;63.808;20.336;2024-03-06T01:23:01;1.63;;;1.13;;
12383;SDS011;6256;63.808;20.336;2024-03-06T01:25:27;2.17;;;1.63;;
12383;SDS011;6256;63.808;20.336;2024-03-06T01:27:52;2.03;;;1.10;;
12383;SDS011;6256;63.808;20.336;2024-03-06T01:30:18;1.20;;;1.00;;
12383;SDS011;6256;63.808;20.336;2024-03-06T01:32:44;1.10;;;1.07;;
12383;SDS011;6256;63.808;20.336;2024-03-06T01:35:09;1.17;;;1.07;;
12383;SDS011;6256;63.808;20.336;2024-03-06T01:37:35;1.93;;;1.23;;
12383;SDS011;6256;63.808;20.336;2024-03-06T01:40:01;1.80;;;1.07;;
12383;SDS011;6256;63.808;20.336;2024-03-06T01:42:29;1.13;;;1.00;;
12383;SDS011;6256;63.808;20.336;2024-03-06T01:44:55;1.97;;;1.47;;
12383;SDS011;6256;63.808;20.336;2024-03-06T01:47:21;1.73;;;1.40;;
12383;SDS011;6256;63.808;20.336;2024-03-06T01:49:46;2.43;;;1.37;;
12383;SDS011;6256;63.808;20.336;2024-03-06T01:52:13;0.90;;;0.90;;
12383;SDS011;6256;63.808;20.336;2024-03-06T01:54:41;1.47;;;1.17;;
12383;SDS011;6256;63.808;20.336;2024-03-06T01:57:08;1.73;;;0.97;;
12383;SDS011;6256;63.808;20.336;2024-03-06T01:59:35;1.00;;;1.00;;
12383;SDS011;6256;63.808;20.336;2024-03-06T02:02:01;1.73;;;1.00;;
12383;SDS011;6256;63.808;20.336;2024-03-06T02:04:28;1.23;;;0.87;;
12383;SDS011;6256;63.808;20.336;2024-03-06T02:06:55;1.70;;;1.40;;
12383;SDS011;6256;63.808;20.336;2024-03-06T02:09:22;1.53;;;1.20;;
12383;SDS011;6256;63.808;20.336;2024-03-06T02:11:49;1.73;;;1.30;;
12383;SDS011;6256;63.808;20.336;2024-03-06T02:14:15;1.73;;;1.43;;
12383;SDS011;6256;63.808;20.336;2024-03-06T02:16:41;1.40;;;1.30;;
12383;SDS011;6256;63.808;20.336;2024-03-06T02:19:07;2.13;;;1.07;;
12383;SDS011;6256;63.808;20.336;2024-03-06T02:21:33;1.53;;;1.43;;
12383;SDS011;6256;63.808;20.336;2024-03-06T02:23:59;1.40;;;0.97;;
12383;SDS011;6256;63.808;20.336;2024-03-06T02:26:25;1.50;;;1.40;;
12383;SDS011;6256;63.808;20.336;2024-03-06T02:28:52;1.43;;;1.10;;
12383;SDS011;6256;63.808;20.336;2024-03-06T02:31:19;1.47;;;1.37;;
12383;SDS011;6256;63.808;20.336;2024-03-06T02:33:46;1.00;;;0.90;;
12383;SDS011;6256;63.808;20.336;2024-03-06T02:36:16;1.70;;;1.20;;
12383;SDS011;6256;63.808;20.336;2024-03-06T02:38:42;1.37;;;1.27;;
12383;SDS011;6256;63.808;20.336;2024-03-06T02:41:09;0.83;;;0.83;;
12383;SDS011;6256;63.808;20.336;2024-03-06T02:43:35;1.70;;;1.40;;
12383;SDS011;6256;63.808;20.336;2024-03-06T02:46:02;2.27;;;1.43;;
12383;SDS011;6256;63.808;20.336;2024-03-06T02:48:28;2.47;;;1.73;;
12383;SDS011;6256;63.808;20.336;2024-03-06T02:50:54;1.93;;;1.67;;
12383;SDS011;6256;63.808;20.336;2024-03-06T02:53:20;1.80;;;1.30;;
12383;SDS011;6256;63.808;20.336;2024-03-06T02:55:47;1.83;;;1.03;;
12383;SDS011;6256;63.808;20.336;2024-03-06T02:58:13;1.63;;;1.20;;
12383;SDS011;6256;63.808;20.336;2024-03-06T03:00:41;2.07;;;1.30;;
12383;SDS011;6256;63.808;20.336;2024-03-06T03:03:07;2.57;;;1.10;;
12383;SDS011;6256;63.808;20.336;2024-03-06T03:05:33;1.63;;;1.53;;
12383;SDS011;6256;63.808;20.336;2024-03-06T03:07:59;1.50;;;1.27;;
12383;SDS011;6256;63.808;20.336;2024-03-06T03:10:25;2.43;;;1.33;;
12383;SDS011;6256;63.808;20.336;2024-03-06T03:12:51;2.20;;;1.10;;
12383;SDS011;6256;63.808;20.336;2024-03-06T03:15:18;2.37;;;1.47;;
12383;SDS011;6256;63.808;20.336;2024-03-06T03:17:43;2.33;;;1.70;;
12383;SDS011;6256;63.808;20.336;2024-03-06T03:20:09;1.77;;;1.47;;
12383;SDS011;6256;63.808;20.336;2024-03-06T03:22:36;1.30;;;1.20;;
12383;SDS011;6256;63.808;20.336;2024-03-06T03:25:03;2.50;;;1.43;;
12383;SDS011;6256;63.808;20.336;2024-03-06T03:27:32;2.43;;;1.73;;
12383;SDS011;6256;63.808;20.336;2024-03-06T03:29:58;1.50;;;1.23;;
12383;SDS011;6256;63.808;20.336;2024-03-06T03:32:24;1.53;;;1.43;;
12383;SDS011;6256;63.808;20.336;2024-03-06T03:34:50;1.50;;;1.40;;
12383;SDS011;6256;63.808;20.336;2024-03-06T03:37:15;1.43;;;1.33;;
12383;SDS011;6256;63.808;20.336;2024-03-06T03:39:43;1.37;;;1.27;;
12383;SDS011;6256;63.808;20.336;2024-03-06T03:42:09;1.40;;;1.30;;
12383;SDS011;6256;63.808;20.336;2024-03-06T03:44:35;1.17;;;1.10;;
12383;SDS011;6256;63.808;20.336;2024-03-06T03:47:01;1.60;;;1.50;;
12383;SDS011;6256;63.808;20.336;2024-03-06T03:49:27;1.33;;;1.23;;
12383;SDS011;6256;63.808;20.336;2024-03-06T03:51:52;2.43;;;1.33;;
12383;SDS011;6256;63.808;20.336;2024-03-06T03:54:18;2.87;;;1.43;;
12383;SDS011;6256;63.808;20.336;2024-03-06T03:56:44;1.60;;;1.27;;
12383;SDS011;6256;63.808;20.336;2024-03-06T03:59:10;2.00;;;1.53;;
12383;SDS011;6256;63.808;20.336;2024-03-06T04:01:35;1.07;;;1.07;;
12383;SDS011;6256;63.808;20.336;2024-03-06T04:04:01;1.77;;;1.17;;
12383;SDS011;6256;63.808;20.336;2024-03-06T04:06:27;1.37;;;1.27;;
12383;SDS011;6256;63.808;20.336;2024-03-06T04:08:52;1.83;;;1.40;;
12383;SDS011;6256;63.808;20.336;2024-03-06T04:11:18;1.20;;;1.00;;
12383;SDS011;6256;63.808;20.336;2024-03-06T04:13:44;1.33;;;1.30;;
12383;SDS011;6256;63.808;20.336;2024-03-06T04:16:15;0.87;;;0.73;;
12383;SDS011;6256;63.808;20.336;2024-03-06T04:18:44;1.67;;;1.30;;
12383;SDS011;6256;63.808;20.336;2024-03-06T04:21:10;2.23;;;1.50;;
12383;SDS011;6256;63.808;20.336;2024-03-06T04:23:36;1.67;;;1.30;;
12383;SDS011;6256;63.808;20.336;2024-03-06T04:26:02;1.77;;;1.30;;
12383;SDS011;6256;63.808;20.336;2024-03-06T04:28:28;2.47;;;1.43;;
12383;SDS011;6256;63.808;20.336;2024-03-06T04:30:54;2.00;;;1.37;;
12383;SDS011;6256;63.808;20.336;2024-03-06T04:33:20;1.93;;;1.40;;
12383;SDS011;6256;63.808;20.336;2024-03-06T04:35:46;2.73;;;1.47;;
12383;SDS011;6256;63.808;20.336;2024-03-06T04:38:12;2.70;;;1.50;;
12383;SDS011;6256;63.808;20.336;2024-03-06T04:40:38;2.07;;;1.60;;
12383;SDS011;6256;63.808;20.336;2024-03-06T04:43:04;2.50;;;1.53;;
12383;SDS011;6256;63.808;20.336;2024-03-06T04:45:31;2.53;;;1.57;;
12383;SDS011;6256;63.808;20.336;2024-03-06T04:47:57;2.00;;;1.40;;
12383;SDS011;6256;63.808;20.336;2024-03-06T04:50:23;1.50;;;1.37;;
12383;SDS011;6256;63.808;20.336;2024-03-06T04:52:49;2.57;;;1.20;;
12383;SDS011;6256;63.808;20.336;2024-03-06T04:55:14;1.30;;;0.97;;
12383;SDS011;6256;63.808;20.336;2024-03-06T04:57:45;2.60;;;1.90;;
12383;SDS011;6256;63.808;20.336;2024-03-06T05:00:11;1.63;;;1.10;;
12383;SDS011;6256;63.808;20.336;2024-03-06T05:02:37;1.50;;;1.40;;
12383;SDS011;6256;63.808;20.336;2024-03-06T05:05:03;1.97;;;1.40;;
12383;SDS011;6256;63.808;20.336;2024-03-06T05:07:30;1.80;;;1.70;;
12383;SDS011;6256;63.808;20.336;2024-03-06T05:09:56;2.57;;;1.80;;
12383;SDS011;6256;63.808;20.336;2024-03-06T05:12:23;3.47;;;1.60;;
12383;SDS011;6256;63.808;20.336;2024-03-06T05:14:50;1.90;;;1.40;;
12383;SDS011;6256;63.808;20.336;2024-03-06T05:17:16;2.10;;;1.13;;
12383;SDS011;6256;63.808;20.336;2024-03-06T05:19:42;2.13;;;1.60;;
12383;SDS011;6256;63.808;20.336;2024-03-06T05:22:09;1.90;;;1.50;;
12383;SDS011;6256;63.808;20.336;2024-03-06T05:24:37;1.63;;;1.53;;
12383;SDS011;6256;63.808;20.336;2024-03-06T05:27:02;3.00;;;1.87;;
12383;SDS011;6256;63.808;20.336;2024-03-06T05:29:29;2.63;;;1.60;;
12383;SDS011;6256;63.808;20.336;2024-03-06T05:31:54;3.70;;;1.83;;
12383;SDS011;6256;63.808;20.336;2024-03-06T05:34:21;1.97;;;1.80;;
12383;SDS011;6256;63.808;20.336;2024-03-06T05:36:47;1.90;;;1.57;;
12383;SDS011;6256;63.808;20.336;2024-03-06T05:39:13;3.63;;;2.60;;
12383;SDS011;6256;63.808;20.336;2024-03-06T05:41:39;1.67;;;1.57;;
12383;SDS011;6256;63.808;20.336;2024-03-06T05:44:06;1.60;;;1.50;;
12383;SDS011;6256;63.808;20.336;2024-03-06T05:46:32;1.93;;;1.73;;
12383;SDS011;6256;63.808;20.336;2024-03-06T05:48:57;2.73;;;1.50;;
12383;SDS011;6256;63.808;20.336;2024-03-06T05:51:23;2.53;;;1.67;;
12383;SDS011;6256;63.808;20.336;2024-03-06T05:53:49;2.67;;;1.70;;
12383;SDS011;6256;63.808;20.336;2024-03-06T05:56:16;1.37;;;1.23;;
12383;SDS011;6256;63.808;20.336;2024-03-06T05:58:43;1.93;;;1.23;;
12383;SDS011;6256;63.808;20.336;2024-03-06T06:01:12;1.77;;;1.60;;
12383;SDS011;6256;63.808;20.336;2024-03-06T06:03:40;2.30;;;1.33;;
12383;SDS011;6256;63.808;20.336;2024-03-06T06:06:06;1.33;;;1.13;;
12383;SDS011;6256;63.808;20.336;2024-03-06T06:08:33;1.83;;;1.30;;
12383;SDS011;6256;63.808;20.336;2024-03-06T06:11:00;1.97;;;1.20;;
12383;SDS011;6256;63.808;20.336;2024-03-06T06:13:28;1.63;;;1.53;;
12383;SDS011;6256;63.808;20.336;2024-03-06T06:15:54;1.30;;;1.20;;
12383;SDS011;6256;63.808;20.336;2024-03-06T06:18:20;1.50;;;1.40;;
12383;SDS011;6256;63.808;20.336;2024-03-06T06:20:45;1.73;;;1.20;;
12383;SDS011;6256;63.808;20.336;2024-03-06T06:23:11;0.90;;;0.90;;
12383;SDS011;6256;63.808;20.336;2024-03-06T06:25:37;1.20;;;1.00;;
12383;SDS011;6256;63.808;20.336;2024-03-06T06:28:03;1.00;;;1.00;;
12383;SDS011;6256;63.808;20.336;2024-03-06T06:30:29;1.50;;;1.40;;
12383;SDS011;6256;63.808;20.336;2024-03-06T06:32:56;1.20;;;1.10;;
12383;SDS011;6256;63.808;20.336;2024-03-06T06:35:21;2.03;;;1.47;;
12383;SDS011;6256;63.808;20.336;2024-03-06T06:37:47;1.30;;;1.20;;
12383;SDS011;6256;63.808;20.336;2024-03-06T06:40:13;0.70;;;0.70;;
12383;SDS011;6256;63.808;20.336;2024-03-06T06:42:43;0.90;;;0.90;;
12383;SDS011;6256;63.808;20.336;2024-03-06T06:45:14;0.90;;;0.90;;
12383;SDS011;6256;63.808;20.336;2024-03-06T06:47:40;1.60;;;1.47;;
12383;SDS011;6256;63.808;20.336;2024-03-06T06:50:06;2.17;;;1.63;;
12383;SDS011;6256;63.808;20.336;2024-03-06T06:52:36;1.90;;;1.33;;
12383;SDS011;6256;63.808;20.336;2024-03-06T06:55:06;1.00;;;0.93;;
12383;SDS011;6256;63.808;20.336;2024-03-06T06:57:34;1.50;;;1.40;;
12383;SDS011;6256;63.808;20.336;2024-03-06T07:00:00;1.27;;;1.10;;
12383;SDS011;6256;63.808;20.336;2024-03-06T07:02:36;1.03;;;0.93;;
12383;SDS011;6256;63.808;20.336;2024-03-06T07:05:04;1.50;;;1.20;;
12383;SDS011;6256;63.808;20.336;2024-03-06T07:07:30;2.53;;;1.33;;
12383;SDS011;6256;63.808;20.336;2024-03-06T07:09:55;0.80;;;0.80;;
12383;SDS011;6256;63.808;20.336;2024-03-06T07:12:21;1.17;;;1.13;;
12383;SDS011;6256;63.808;20.336;2024-03-06T07:14:47;1.77;;;1.30;;
12383;SDS011;6256;63.808;20.336;2024-03-06T07:17:13;2.30;;;0.90;;
12383;SDS011;6256;63.808;20.336;2024-03-06T07:19:38;3.80;;;1.13;;
12383;SDS011;6256;63.808;20.336;2024-03-06T07:22:04;2.00;;;1.20;;
12383;SDS011;6256;63.808;20.336;2024-03-06T07:24:30;1.40;;;1.00;;
12383;SDS011;6256;63.808;20.336;2024-03-06T07:26:56;1.47;;;1.20;;
12383;SDS011;6256;63.808;20.336;2024-03-06T07:29:22;1.60;;;1.13;;
12383;SDS011;6256;63.808;20.336;2024-03-06T07:31:47;1.83;;;1.27;;
12383;SDS011;6256;63.808;20.336;2024-03-06T07:34:13;1.43;;;1.33;;
12383;SDS011;6256;63.808;20.336;2024-03-06T07:36:39;2.33;;;1.33;;
12383;SDS011;6256;63.808;20.336;2024-03-06T07:39:06;1.50;;;1.00;;
12383;SDS011;6256;63.808;20.336;2024-03-06T07:41:34;1.13;;;1.13;;
12383;SDS011;6256;63.808;20.336;2024-03-06T07:44:00;1.00;;;1.00;;
12383;SDS011;6256;63.808;20.336;2024-03-06T07:46:26;1.43;;;1.33;;
12383;SDS011;6256;63.808;20.336;2024-03-06T07:48:52;1.20;;;1.07;;
12383;SDS011;6256;63.808;20.336;2024-03-06T07:51:18;0.90;;;0.90;;
12383;SDS011;6256;63.808;20.336;2024-03-06T07:53:44;0.73;;;0.60;;
12383;SDS011;6256;63.808;20.336;2024-03-06T07:56:10;1.73;;;1.30;;
12383;SDS011;6256;63.808;20.336;2024-03-06T07:58:39;1.10;;;1.10;;
12383;SDS011;6256;63.808;20.336;2024-03-06T08:01:07;2.53;;;1.47;;
12383;SDS011;6256;63.808;20.336;2024-03-06T08:03:33;1.47;;;1.30;;
12383;SDS011;6256;63.808;20.336;2024-03-06T08:05:59;1.20;;;1.10;;
12383;SDS011;6256;63.808;20.336;2024-03-06T08:08:25;1.03;;;1.03;;
12383;SDS011;6256;63.808;20.336;2024-03-06T08:10:51;0.93;;;0.93;;
12383;SDS011;6256;63.808;20.336;2024-03-06T08:13:17;2.13;;;1.30;;
12383;SDS011;6256;63.808;20.336;2024-03-06T08:15:44;1.17;;;1.10;;
12383;SDS011;6256;63.808;20.336;2024-03-06T08:18:10;2.00;;;1.20;;
12383;SDS011;6256;63.808;20.336;2024-03-06T08:20:38;1.13;;;1.10;;
12383;SDS011;6256;63.808;20.336;2024-03-06T08:23:04;1.00;;;1.00;;
12383;SDS011;6256;63.808;20.336;2024-03-06T08:25:29;2.77;;;1.50;;
12383;SDS011;6256;63.808;20.336;2024-03-06T08:27:57;2.47;;;1.40;;
12383;SDS011;6256;63.808;20.336;2024-03-06T08:30:24;1.37;;;1.27;;
12383;SDS011;6256;63.808;20.336;2024-03-06T08:32:50;1.83;;;1.30;;
12383;SDS011;6256;63.808;20.336;2024-03-06T08:35:16;2.53;;;1.37;;
12383;SDS011;6256;63.808;20.336;2024-03-06T08:37:45;0.90;;;0.70;;
12383;SDS011;6256;63.808;20.336;2024-03-06T08:40:10;1.50;;;1.40;;
12383;SDS011;6256;63.808;20.336;2024-03-06T08:42:48;1.60;;;1.27;;
12383;SDS011;6256;63.808;20.336;2024-03-06T08:45:15;2.30;;;1.30;;
12383;SDS011;6256;63.808;20.336;2024-03-06T08:47:42;1.67;;;1.20;;
12383;SDS011;6256;63.808;20.336;2024-03-06T08:50:09;1.60;;;1.20;;
12383;SDS011;6256;63.808;20.336;2024-03-06T08:52:35;1.07;;;1.07;;
12383;SDS011;6256;63.808;20.336;2024-03-06T08:55:02;1.93;;;1.30;;
12383;SDS011;6256;63.808;20.336;2024-03-06T08:57:31;1.43;;;1.20;;
12383;SDS011;6256;63.808;20.336;2024-03-06T09:00:00;0.90;;;0.90;;
12383;SDS011;6256;63.808;20.336;2024-03-06T09:02:26;2.00;;;1.00;;
12383;SDS011;6256;63.808;20.336;2024-03-06T09:04:52;1.10;;;1.00;;
12383;SDS011;6256;63.808;20.336;2024-03-06T09:07:19;0.90;;;0.90;;
12383;SDS011;6256;63.808;20.336;2024-03-06T09:09:48;1.20;;;1.20;;
12383;SDS011;6256;63.808;20.336;2024-03-06T09:12:17;1.50;;;1.40;;
12383;SDS011;6256;63.808;20.336;2024-03-06T09:14:43;1.37;;;1.13;;
12383;SDS011;6256;63.808;20.336;2024-03-06T09:17:10;1.00;;;1.00;;
12383;SDS011;6256;63.808;20.336;2024-03-06T09:19:39;2.00;;;1.20;;
12383;SDS011;6256;63.808;20.336;2024-03-06T09:22:06;0.93;;;0.93;;
12383;SDS011;6256;63.808;20.336;2024-03-06T09:24:32;1.40;;;1.30;;
12383;SDS011;6256;63.808;20.336;2024-03-06T09:27:00;1.20;;;1.03;;
12383;SDS011;6256;63.808;20.336;2024-03-06T09:29:26;1.53;;;1.40;;
12383;SDS011;6256;63.808;20.336;2024-03-06T09:31:52;1.37;;;1.27;;
12383;SDS011;6256;63.808;20.336;2024-03-06T09:34:18;1.60;;;0.87;;
12383;SDS011;6256;63.808;20.336;2024-03-06T09:36:47;1.17;;;1.00;;
12383;SDS011;6256;63.808;20.336;2024-03-06T09:39:14;1.60;;;1.50;;
12383;SDS011;6256;63.808;20.336;2024-03-06T09:41:49;1.00;;;1.00;;
12383;SDS011;6256;63.808;20.336;2024-03-06T09:44:15;1.20;;;1.10;;
12383;SDS011;6256;63.808;20.336;2024-03-06T09:46:42;1.63;;;1.53;;
12383;SDS011;6256;63.808;20.336;2024-03-06T09:49:09;1.40;;;1.27;;
12383;SDS011;6256;63.808;20.336;2024-03-06T09:51:44;1.30;;;1.20;;
12383;SDS011;6256;63.808;20.336;2024-03-06T09:54:11;1.27;;;0.83;;
12383;SDS011;6256;63.808;20.336;2024-03-06T09:56:43;0.90;;;0.80;;
12383;SDS011;6256;63.808;20.336;2024-03-06T09:59:10;1.10;;;1.10;;
12383;SDS011;6256;63.808;20.336;2024-03-06T10:01:40;1.10;;;1.00;;
12383;SDS011;6256;63.808;20.336;2024-03-06T10:06:45;0.90;;;0.80;;
12383;SDS011;6256;63.808;20.336;2024-03-06T10:09:11;1.00;;;0.90;;
12383;SDS011;6256;63.808;20.336;2024-03-06T10:11:38;1.13;;;1.03;;
12383;SDS011;6256;63.808;20.336;2024-03-06T10:14:05;1.50;;;1.40;;
12383;SDS011;6256;63.808;20.336;2024-03-06T10:16:31;2.10;;;1.47;;
12383;SDS011;6256;63.808;20.336;2024-03-06T10:18:56;1.13;;;0.97;;
12383;SDS011;6256;63.808;20.336;2024-03-06T10:21:31;2.30;;;1.10;;
12383;SDS011;6256;63.808;20.336;2024-03-06T10:23:57;1.20;;;1.10;;
12383;SDS011;6256;63.808;20.336;2024-03-06T10:26:24;1.00;;;0.90;;
12383;SDS011;6256;63.808;20.336;2024-03-06T10:28:50;1.40;;;1.10;;
12383;SDS011;6256;63.808;20.336;2024-03-06T10:31:26;0.83;;;0.83;;
12383;SDS011;6256;63.808;20.336;2024-03-06T10:33:53;1.53;;;1.30;;
12383;SDS011;6256;63.808;20.336;2024-03-06T10:36:19;1.93;;;1.00;;
12383;SDS011;6256;63.808;20.336;2024-03-06T10:38:44;1.77;;;1.10;;
12383;SDS011;6256;63.808;20.336;2024-03-06T10:41:14;1.87;;;1.27;;
12383;SDS011;6256;63.808;20.336;2024-03-06T10:43:40;1.40;;;1.30;;
12383;SDS011;6256;63.808;20.336;2024-03-06T10:46:09;1.40;;;1.27;;
12383;SDS011;6256;63.808;20.336;2024-03-06T10:48:37;2.33;;;1.20;;
12383;SDS011;6256;63.808;20.336;2024-03-06T10:51:05;2.07;;;1.33;;
12383;SDS011;6256;63.808;20.336;2024-03-06T10:53:32;1.67;;;1.50;;
12383;SDS011;6256;63.808;20.336;2024-03-06T10:56:00;1.60;;;1.40;;
12383;SDS011;6256;63.808;20.336;2024-03-06T10:58:28;3.03;;;1.30;;
12383;SDS011;6256;63.808;20.336;2024-03-06T11:00:55;1.33;;;1.23;;
12383;SDS011;6256;63.808;20.336;2024-03-06T11:03:23;1.40;;;1.30;;
12383;SDS011;6256;63.808;20.336;2024-03-06T11:05:51;1.07;;;0.90;;
12383;SDS011;6256;63.808;20.336;2024-03-06T11:08:19;1.90;;;1.27;;
12383;SDS011;6256;63.808;20.336;2024-03-06T11:10:46;1.33;;;1.20;;
12383;SDS011;6256;63.808;20.336;2024-03-06T11:15:51;1.30;;;1.20;;
12383;SDS011;6256;63.808;20.336;2024-03-06T11:26:54;1.10;;;1.10;;
12383;SDS011;6256;63.808;20.336;2024-03-06T11:29:26;1.10;;;1.10;;
12383;SDS011;6256;63.808;20.336;2024-03-06T11:31:59;5.07;;;1.13;;
12383;SDS011;6256;63.808;20.336;2024-03-06T11:34:36;2.00;;;1.30;;
12383;SDS011;6256;63.808;20.336;2024-03-06T11:37:06;1.27;;;1.17;;
12383;SDS011;6256;63.808;20.336;2024-03-06T11:39:38;1.60;;;1.00;;
12383;SDS011;6256;63.808;20.336;2024-03-06T11:42:06;1.03;;;1.03;;
12383;SDS011;6256;63.808;20.336;2024-03-06T11:44:35;1.33;;;1.20;;
12383;SDS011;6256;63.808;20.336;2024-03-06T11:47:01;1.33;;;1.03;;
12383;SDS011;6256;63.808;20.336;2024-03-06T11:49:29;1.40;;;1.30;;
12383;SDS011;6256;63.808;20.336;2024-03-06T11:52:02;1.70;;;1.07;;
12383;SDS011;6256;63.808;20.336;2024-03-06T11:54:30;1.63;;;1.53;;
12383;SDS011;6256;63.808;20.336;2024-03-06T11:56:58;1.33;;;1.23;;
12383;SDS011;6256;63.808;20.336;2024-03-06T11:59:32;1.80;;;1.20;;
12383;SDS011;6256;63.808;20.336;2024-03-06T12:02:04;1.60;;;1.47;;
12383;SDS011;6256;63.808;20.336;2024-03-06T12:04:31;1.30;;;1.20;;
12383;SDS011;6256;63.808;20.336;2024-03-06T12:06:59;1.37;;;1.27;;
12383;SDS011;6256;63.808;20.336;2024-03-06T12:09:25;2.00;;;1.37;;
12383;SDS011;6256;63.808;20.336;2024-03-06T12:11:52;1.23;;;1.00;;
12383;SDS011;6256;63.808;20.336;2024-03-06T12:14:18;1.87;;;1.50;;
12383;SDS011;6256;63.808;20.336;2024-03-06T12:16:58;2.23;;;1.27;;
12383;SDS011;6256;63.808;20.336;2024-03-06T12:19:43;3.97;;;1.67;;
12383;SDS011;6256;63.808;20.336;2024-03-06T12:22:11;1.73;;;1.53;;
12383;SDS011;6256;63.808;20.336;2024-03-06T12:24:37;1.40;;;1.30;;
12383;SDS011;6256;63.808;20.336;2024-03-06T12:27:04;1.50;;;1.40;;
12383;SDS011;6256;63.808;20.336;2024-03-06T12:29:32;1.57;;;1.47;;
12383;SDS011;6256;63.808;20.336;2024-03-06T12:32:00;1.37;;;1.27;;
12383;SDS011;6256;63.808;20.336;2024-03-06T12:34:26;1.63;;;1.37;;
12383;SDS011;6256;63.808;20.336;2024-03-06T12:36:56;1.63;;;1.40;;
12383;SDS011;6256;63.808;20.336;2024-03-06T12:39:23;2.10;;;1.43;;
12383;SDS011;6256;63.808;20.336;2024-03-06T12:41:52;3.17;;;1.20;;
12383;SDS011;6256;63.808;20.336;2024-03-06T12:44:21;1.60;;;1.50;;
12383;SDS011;6256;63.808;20.336;2024-03-06T12:46:47;1.30;;;1.20;;
12383;SDS011;6256;63.808;20.336;2024-03-06T12:49:13;5.07;;;1.60;;
12383;SDS011;6256;63.808;20.336;2024-03-06T12:51:39;1.70;;;1.30;;
12383;SDS011;6256;63.808;20.336;2024-03-06T12:54:05;1.87;;;1.53;;
12383;SDS011;6256;63.808;20.336;2024-03-06T12:56:31;3.63;;;1.30;;
12383;SDS011;6256;63.808;20.336;2024-03-06T12:58:58;1.33;;;1.20;;
12383;SDS011;6256;63.808;20.336;2024-03-06T13:01:23;1.80;;;1.53;;
12383;SDS011;6256;63.808;20.336;2024-03-06T13:03:49;1.17;;;1.07;;
12383;SDS011;6256;63.808;20.336;2024-03-06T13:06:14;1.10;;;1.00;;
12383;SDS011;6256;63.808;20.336;2024-03-06T13:08:40;1.20;;;1.10;;
12383;SDS011;6256;63.808;20.336;2024-03-06T13:11:06;1.77;;;1.30;;
12383;SDS011;6256;63.808;20.336;2024-03-06T13:13:32;2.43;;;1.40;;
12383;SDS011;6256;63.808;20.336;2024-03-06T13:15:59;1.60;;;1.20;;
12383;SDS011;6256;63.808;20.336;2024-03-06T13:18:25;2.10;;;1.30;;
12383;SDS011;6256;63.808;20.336;2024-03-06T13:20:51;1.40;;;1.30;;
12383;SDS011;6256;63.808;20.336;2024-03-06T13:23:17;4.43;;;1.40;;
12383;SDS011;6256;63.808;20.336;2024-03-06T13:25:43;1.27;;;1.17;;
12383;SDS011;6256;63.808;20.336;2024-03-06T13:28:10;2.13;;;1.33;;
12383;SDS011;6256;63.808;20.336;2024-03-06T13:30:36;1.50;;;1.40;;
12383;SDS011;6256;63.808;20.336;2024-03-06T13:33:04;1.83;;;1.30;;
12383;SDS011;6256;63.808;20.336;2024-03-06T13:35:30;2.63;;;1.00;;
12383;SDS011;6256;63.808;20.336;2024-03-06T13:37:56;1.83;;;1.27;;
12383;SDS011;6256;63.808;20.336;2024-03-06T13:40:22;1.67;;;1.57;;
12383;SDS011;6256;63.808;20.336;2024-03-06T13:42:47;1.20;;;1.03;;
12383;SDS011;6256;63.808;20.336;2024-03-06T13:45:13;1.57;;;1.40;;
12383;SDS011;6256;63.808;20.336;2024-03-06T13:47:42;3.17;;;1.40;;
12383;SDS011;6256;63.808;20.336;2024-03-06T13:50:10;1.37;;;1.27;;
12383;SDS011;6256;63.808;20.336;2024-03-06T13:52:37;1.47;;;1.33;;
12383;SDS011;6256;63.808;20.336;2024-03-06T13:55:03;1.70;;;1.60;;
12383;SDS011;6256;63.808;20.336;2024-03-06T13:57:32;1.53;;;1.43;;
12383;SDS011;6256;63.808;20.336;2024-03-06T13:59:59;1.20;;;1.10;;
12383;SDS011;6256;63.808;20.336;2024-03-06T14:02:32;1.67;;;1.27;;
12383;SDS011;6256;63.808;20.336;2024-03-06T14:04:58;1.30;;;1.20;;
12383;SDS011;6256;63.808;20.336;2024-03-06T14:07:24;1.70;;;1.50;;
12383;SDS011;6256;63.808;20.336;2024-03-06T14:09:50;3.80;;;2.40;;
12383;SDS011;6256;63.808;20.336;2024-03-06T14:12:16;4.03;;;2.87;;
12383;SDS011;6256;63.808;20.336;2024-03-06T14:14:42;3.70;;;2.87;;
12383;SDS011;6256;63.808;20.336;2024-03-06T14:17:10;4.83;;;3.03;;
12383;SDS011;6256;63.808;20.336;2024-03-06T14:19:36;5.70;;;3.60;;
12383;SDS011;6256;63.808;20.336;2024-03-06T14:22:02;4.40;;;3.53;;
12383;SDS011;6256;63.808;20.336;2024-03-06T14:24:27;3.93;;;3.13;;
12383;SDS011;6256;63.808;20.336;2024-03-06T14:26:53;6.50;;;3.63;;
12383;SDS011;6256;63.808;20.336;2024-03-06T14:29:19;4.73;;;3.70;;
12383;SDS011;6256;63.808;20.336;2024-03-06T14:31:44;5.27;;;2.93;;
12383;SDS011;6256;63.808;20.336;2024-03-06T14:34:10;3.80;;;2.70;;
12383;SDS011;6256;63.808;20.336;2024-03-06T14:36:36;3.87;;;2.80;;
12383;SDS011;6256;63.808;20.336;2024-03-06T14:39:02;4.37;;;2.60;;
12383;SDS011;6256;63.808;20.336;2024-03-06T14:41:28;3.50;;;2.67;;
12383;SDS011;6256;63.808;20.336;2024-03-06T14:43:53;4.03;;;2.50;;
12383;SDS011;6256;63.808;20.336;2024-03-06T14:46:19;3.53;;;2.50;;
12383;SDS011;6256;63.808;20.336;2024-03-06T14:48:45;2.03;;;1.87;;
12383;SDS011;6256;63.808;20.336;2024-03-06T14:51:11;2.73;;;2.00;;
12383;SDS011;6256;63.808;20.336;2024-03-06T14:53:38;3.33;;;2.67;;
12383;SDS011;6256;63.808;20.336;2024-03-06T14:56:04;2.80;;;2.00;;
12383;SDS011;6256;63.808;20.336;2024-03-06T14:58:30;3.83;;;1.93;;
12383;SDS011;6256;63.808;20.336;2024-03-06T15:00:56;2.60;;;1.93;;